This is the latest recevied weather packets stored in our database for station/object KI6AOK. If no packets are shown the sender has not sent any weather packets the latest 10 day(s).
| Time | Temp. | Humidity | Pressure | Rain* | Wind** | Luminosity | Snow |
|---|---|---|---|---|---|---|---|
| 1777674714 | 23.89° C | 54% | 1012.2 hPa | 0 mm | - | 591 W/m² | - |
| 1777674411 | 23.89° C | 52% | 1012.2 hPa | 0 mm | - | 600 W/m² | - |
| 1777674109 | 23.89° C | 53% | 1012.2 hPa | 0 mm | - | 615 W/m² | - |
| 1777673804 | 23.89° C | 53% | 1012.1 hPa | 0 mm | - | 630 W/m² | - |
| 1777673502 | 23.89° C | 53% | 1012.4 hPa | 0 mm | - | 642 W/m² | - |
| 1777673199 | 23.89° C | 52% | 1012.4 hPa | 0 mm | - | 654 W/m² | - |
| 1777672896 | 23.33° C | 54% | 1012.4 hPa | 0 mm | - | 669 W/m² | - |
| 1777672593 | 23.89° C | 54% | 1012.4 hPa | 0 mm | - | 680 W/m² | - |
| 1777672288 | 23.89° C | 53% | 1012.4 hPa | 0 mm | - | 695 W/m² | - |
| 1777671983 | 23.33° C | 55% | 1012.6 hPa | 0 mm | - | 706 W/m² | - |
| 1777671679 | 23.89° C | 54% | 1012.7 hPa | 0 mm | - | 717 W/m² | - |
| 1777671376 | 23.89° C | 54% | 1012.6 hPa | 0 mm | - | 727 W/m² | - |
| 1777671072 | 23.33° C | 55% | 1012.7 hPa | 0 mm | - | 737 W/m² | - |
| 1777670769 | 23.33° C | 54% | 1012.7 hPa | 0 mm | - | 750 W/m² | - |
| 1777670466 | 23.89° C | 53% | 1012.7 hPa | 0 mm | - | 759 W/m² | - |
| 1777670162 | 23.89° C | 53% | 1012.6 hPa | 0 mm | - | 769 W/m² | - |
| 1777669860 | 23.33° C | 54% | 1012.6 hPa | 0 mm | - | 777 W/m² | - |
| 1777669556 | 23.33° C | 54% | 1012.7 hPa | 0 mm | - | 789 W/m² | - |
| 1777669253 | 22.78° C | 55% | 1012.7 hPa | 0 mm | - | 789 W/m² | - |
| 1777668950 | 23.89° C | 52% | 1012.8 hPa | 0 mm | - | 803 W/m² | - |
| 1777668648 | 23.89° C | 53% | 1012.7 hPa | 0 mm | - | 807 W/m² | - |
| 1777668343 | 24.44° C | 52% | 1012.8 hPa | 0 mm | - | 811 W/m² | - |
| 1777668040 | 25° C | 50% | 1012.7 hPa | 0 mm | - | 821 W/m² | - |
| 1777667736 | 25.56° C | 49% | 1012.6 hPa | 0 mm | - | 828 W/m² | - |
| 1777667434 | 25.56° C | 48% | 1012.7 hPa | 0 mm | - | 831 W/m² | - |
* Rain latest hour (hover to see other rain measurements)
** Current wind speed in m/s (hover to see current wind gust speed)